Time;durP1;ratioP1;P1;durP2;ratioP2;P2;SDS_P1;SDS_P2;PMS_P1;PMS_P2;Temp;Humidity;BMP_temperature;BMP_pressure;BME280_temperature;BME280_humidity;BME280_pressure;Samples;Min_cycle;Max_cycle;Signal;HPM_P1;HPM_P2
2024/03/12 00:00:22;;;;;;;35.28;22.83;;;;;;;12.51;75.67;100897.47;5046503;28;20044;-62
2024/03/12 00:02:50;;;;;;;39.67;23.83;;;;;;;12.49;76.65;100900.56;5038696;28;20069;-63
2024/03/12 00:05:21;;;;;;;35.42;23.30;;;;;;;12.86;75.63;100896.41;5041437;28;20697;-59
2024/03/12 00:07:49;;;;;;;36.42;23.17;;;;;;;12.26;77.18;100910.06;5045158;28;20063;-59
2024/03/12 00:10:19;;;;;;;35.35;22.27;;;;;;;12.56;75.97;100908.38;5040810;28;20053;-61
2024/03/12 00:12:48;;;;;;;36.72;22.02;;;;;;;12.84;75.61;100916.06;5042947;28;20068;-62
2024/03/12 00:15:18;;;;;;;35.53;22.00;;;;;;;12.37;75.81;100928.00;5042130;28;20048;-61
2024/03/12 00:17:49;;;;;;;36.38;22.95;;;;;;;12.18;77.56;100922.75;5047911;28;20063;-60
2024/03/12 00:20:17;;;;;;;36.97;20.80;;;;;;;12.77;76.50;100917.69;5034483;28;20753;-61
2024/03/12 00:22:49;;;;;;;30.52;19.98;;;;;;;12.40;77.83;100930.13;5042467;28;20053;-58
2024/03/12 00:25:19;;;;;;;34.30;20.90;;;;;;;12.61;77.47;100925.63;5039462;28;20044;-60
2024/03/12 00:27:50;;;;;;;;;;;;;;;12.64;76.88;100932.47;5038703;28;20049;-59
2024/03/12 00:30:24;;;;;;;30.85;19.58;;;;;;;12.98;75.25;100929.75;5038074;28;19925;-60
2024/03/12 00:32:54;;;;;;;35.22;21.02;;;;;;;12.89;74.52;100935.28;5040539;28;20057;-61
2024/03/12 00:35:24;;;;;;;33.45;20.73;;;;;;;12.66;75.10;100941.25;5035841;28;20060;-62
2024/03/12 00:37:52;;;;;;;34.28;20.40;;;;;;;12.12;78.13;100939.75;5038079;28;20049;-62
2024/03/12 00:40:22;;;;;;;34.67;20.52;;;;;;;12.29;77.45;100945.38;5048674;28;20049;-60
2024/03/12 00:42:52;;;;;;;31.45;19.77;;;;;;;12.64;76.80;100955.38;5045781;28;20064;-60
2024/03/12 00:45:25;;;;;;;32.80;20.48;;;;;;;12.62;76.64;100960.44;5034470;28;20553;-61
2024/03/12 00:47:57;;;;;;;31.35;19.98;;;;;;;12.34;77.13;100959.81;5036933;28;20049;-61
2024/03/12 00:50:28;;;;;;;29.52;18.73;;;;;;;12.74;75.47;100968.91;5044006;28;20052;-62
2024/03/12 00:52:55;;;;;;;27.98;18.77;;;;;;;13.20;73.85;100965.56;5033270;28;20590;-61
2024/03/12 00:55:23;;;;;;;33.42;20.25;;;;;;;12.81;74.52;100974.78;5032275;28;20065;-60
2024/03/12 00:57:51;;;;;;;27.58;18.30;;;;;;;12.67;75.65;100979.63;5034213;28;20040;-58
2024/03/12 01:00:25;;;;;;;33.25;19.38;;;;;;;12.58;75.25;100987.06;5039285;28;20064;-62
2024/03/12 01:02:54;;;;;;;29.75;17.70;;;;;;;12.69;75.42;100988.41;5036804;28;20045;-61
2024/03/12 01:05:24;;;;;;;35.00;18.92;;;;;;;12.34;75.32;100989.41;5034243;28;20049;-58
2024/03/12 01:07:53;;;;;;;29.38;19.15;;;;;;;12.82;75.21;100990.22;5033524;28;20143;-61
2024/03/12 01:10:21;;;;;;;28.50;17.98;;;;;;;12.98;73.76;100982.28;5041517;28;20083;-60
2024/03/12 01:12:49;;;;;;;28.42;17.50;;;;;;;12.58;75.00;100986.25;5045017;28;20052;-60
2024/03/12 01:15:20;;;;;;;27.48;17.27;;;;;;;12.83;74.44;100969.72;5042022;28;20059;-60
2024/03/12 01:17:48;;;;;;;29.50;16.65;;;;;;;12.72;75.14;100979.47;5044267;28;20069;-60
2024/03/12 01:20:20;;;;;;;27.83;18.08;;;;;;;12.94;73.97;100973.00;5042390;28;20041;-60
2024/03/12 01:22:50;;;;;;;26.30;16.25;;;;;;;12.96;73.32;100965.19;5042665;28;20060;-58
2024/03/12 01:25:21;;;;;;;26.58;17.30;;;;;;;12.72;75.08;100976.72;5047361;28;20059;-61
2024/03/12 01:27:49;;;;;;;25.52;16.52;;;;;;;12.92;73.67;100989.91;5047670;28;20063;-60
2024/03/12 01:30:19;;;;;;;30.58;17.02;;;;;;;12.77;72.25;100986.78;5050233;28;20048;-59
2024/03/12 01:32:51;;;;;;;26.77;16.83;;;;;;;12.99;73.25;100993.00;5066373;28;20154;-60
2024/03/12 01:35:20;;;;;;;24.95;15.45;;;;;;;13.03;73.51;100980.22;5068671;28;20583;-59
2024/03/12 01:37:51;;;;;;;23.55;15.15;;;;;;;12.73;73.86;100988.56;5036691;28;20091;-61
2024/03/12 01:40:25;;;;;;;25.30;15.57;;;;;;;12.94;72.53;100984.06;5064119;28;20048;-61
2024/03/12 01:43:03;;;;;;;23.80;15.38;;;;;;;13.02;72.46;100978.56;5042353;28;20060;-60
2024/03/12 01:45:33;;;;;;;26.42;15.40;;;;;;;12.86;72.98;100991.22;5046668;28;20052;-63
2024/03/12 01:48:07;;;;;;;25.60;16.00;;;;;;;12.75;71.79;100987.13;5048575;28;20548;-59
2024/03/12 01:50:37;;;;;;;22.48;13.85;;;;;;;12.79;72.78;100990.88;5044962;28;20288;-58
2024/03/12 01:53:07;;;;;;;23.83;14.98;;;;;;;12.75;72.40;100981.59;5041974;28;20064;-60
2024/03/12 01:55:43;;;;;;;20.45;13.02;;;;;;;12.35;72.42;100985.50;5048372;28;20055;-60
2024/03/12 01:58:18;;;;;;;23.50;14.65;;;;;;;12.67;73.30;100982.38;5046770;28;20594;-61
2024/03/12 02:00:45;;;;;;;23.75;14.90;;;;;;;12.67;71.96;100979.63;5047377;28;20475;-60
2024/03/12 02:03:18;;;;;;;21.88;13.25;;;;;;;13.08;71.33;100982.81;5046821;28;20048;-60
2024/03/12 02:05:48;;;;;;;22.27;13.75;;;;;;;13.03;70.87;100977.44;5050870;28;20523;-59
2024/03/12 02:08:16;;;;;;;;;;;;;;;13.06;70.23;100979.56;5050706;28;20052;-59
2024/03/12 02:10:44;;;;;;;21.10;12.75;;;;;;;13.01;69.73;100976.09;5047026;28;19925;-60
2024/03/12 02:13:11;;;;;;;21.27;13.30;;;;;;;12.82;71.33;100972.81;5044821;28;20088;-61
2024/03/12 02:15:38;;;;;;;22.40;12.60;;;;;;;13.04;70.95;100975.50;5047884;28;20773;-60
2024/03/12 02:18:08;;;;;;;20.45;11.98;;;;;;;13.07;70.61;100977.63;5079336;28;20055;-59
2024/03/12 02:20:37;;;;;;;18.02;11.70;;;;;;;13.12;70.26;100964.44;5052964;28;20049;-61
2024/03/12 02:23:05;;;;;;;26.42;13.93;;;;;;;12.77;71.38;100981.25;5047144;28;20056;-60
2024/03/12 02:25:32;;;;;;;21.17;12.98;;;;;;;13.04;70.60;100978.28;5044297;28;20060;-61
2024/03/12 02:28:00;;;;;;;21.25;12.95;;;;;;;13.11;70.64;100981.38;5045730;28;20056;-59
2024/03/12 02:30:28;;;;;;;19.30;12.52;;;;;;;13.06;69.83;100974.03;5043473;28;20049;-59
2024/03/12 02:32:55;;;;;;;25.20;14.30;;;;;;;12.97;70.29;100980.66;5034138;28;20061;-61
2024/03/12 02:35:23;;;;;;;18.67;12.73;;;;;;;13.19;69.85;100984.13;5047178;28;20049;-60
2024/03/12 02:37:50;;;;;;;21.15;13.77;;;;;;;13.12;70.00;100981.03;5042122;28;20571;-60
2024/03/12 02:40:18;;;;;;;20.38;12.80;;;;;;;13.06;69.62;100985.09;5045749;28;20056;-58
2024/03/12 02:42:46;;;;;;;20.00;12.68;;;;;;;12.97;70.87;100992.53;5046774;28;20052;-58
2024/03/12 02:45:16;;;;;;;20.80;13.43;;;;;;;12.81;72.05;100990.53;5079102;28;20051;-59
2024/03/12 02:47:44;;;;;;;21.13;12.38;;;;;;;12.86;71.63;100993.16;5045667;28;20695;-59
2024/03/12 02:50:15;;;;;;;25.30;13.20;;;;;;;12.98;71.56;100987.81;5044298;28;20479;-61
2024/03/12 02:52:44;;;;;;;21.00;13.23;;;;;;;12.87;72.07;100990.06;5045844;28;20052;-59
2024/03/12 02:55:12;;;;;;;22.40;13.48;;;;;;;12.83;72.52;100991.03;5046957;28;20283;-59
2024/03/12 02:57:39;;;;;;;18.55;12.40;;;;;;;12.95;72.16;100989.28;5046253;28;20049;-59
2024/03/12 03:00:14;;;;;;;23.95;13.20;;;;;;;12.94;72.14;100987.63;5077216;28;20433;-59
2024/03/12 03:02:43;;;;;;;20.08;12.65;;;;;;;13.03;71.44;100987.69;5047592;28;20057;-59
2024/03/12 03:05:11;;;;;;;17.88;11.70;;;;;;;12.87;71.74;101003.88;5046715;28;20057;-61
2024/03/12 03:07:40;;;;;;;21.38;12.68;;;;;;;13.07;71.88;100991.44;5045087;28;20049;-61
2024/03/12 03:10:09;;;;;;;19.50;12.20;;;;;;;12.94;71.53;101001.47;5045649;28;20045;-61
2024/03/12 03:12:37;;;;;;;21.42;12.93;;;;;;;12.84;71.94;101003.72;5046146;28;20057;-60
2024/03/12 03:15:05;;;;;;;18.20;11.85;;;;;;;12.89;72.84;101003.56;5044259;28;20268;-57
2024/03/12 03:17:33;;;;;;;19.02;11.75;;;;;;;12.88;72.73;101008.31;5046973;28;20408;-58
2024/03/12 03:20:00;;;;;;;17.80;11.90;;;;;;;12.54;74.72;101007.34;5046625;28;20049;-60
2024/03/12 03:22:28;;;;;;;18.13;11.35;;;;;;;12.65;75.48;101006.75;5050656;28;20049;-60
2024/03/12 03:24:55;;;;;;;19.73;12.25;;;;;;;12.74;74.98;101006.78;5043769;28;20061;-60
2024/03/12 03:27:22;;;;;;;17.70;12.68;;;;;;;12.60;75.42;101003.31;5027084;28;20487;-56
2024/03/12 03:29:50;;;;;;;16.58;11.15;;;;;;;12.66;76.74;101008.38;5026664;28;20057;-60
2024/03/12 03:32:19;;;;;;;17.38;11.98;;;;;;;12.65;77.31;101009.53;5072281;28;20063;-60
2024/03/12 03:34:46;;;;;;;21.15;11.60;;;;;;;12.37;79.22;101013.63;5046413;28;20057;-60
2024/03/12 03:37:13;;;;;;;20.65;11.38;;;;;;;12.55;77.97;101012.59;5046221;28;20064;-59
2024/03/12 03:39:41;;;;;;;19.67;12.02;;;;;;;12.29;78.10;101015.22;5045011;28;20053;-58
2024/03/12 03:42:08;;;;;;;16.92;10.70;;;;;;;12.65;78.70;101017.81;5040522;28;20073;-56
2024/03/12 03:44:36;;;;;;;18.35;11.10;;;;;;;12.59;78.85;101012.75;5025724;28;20053;-60
2024/03/12 03:47:04;;;;;;;18.98;11.63;;;;;;;12.59;78.93;101018.28;5026995;28;20077;-59
2024/03/12 03:49:31;;;;;;;18.58;11.20;;;;;;;12.68;78.02;101017.16;5045512;28;20060;-60
2024/03/12 03:51:58;;;;;;;17.67;11.43;;;;;;;12.28;80.22;101010.84;5044457;28;20049;-60
2024/03/12 03:54:26;;;;;;;18.13;11.68;;;;;;;12.58;78.67;101019.41;5046125;28;20424;-61
2024/03/12 03:56:53;;;;;;;18.05;11.60;;;;;;;12.56;78.68;101016.97;5046322;28;20052;-61
2024/03/12 03:59:21;;;;;;;17.60;11.45;;;;;;;12.60;78.95;101020.72;5046107;28;20064;-60
2024/03/12 04:01:49;;;;;;;17.33;11.35;;;;;;;12.65;78.69;101017.81;5045746;28;20544;-60
2024/03/12 04:04:18;;;;;;;19.17;11.93;;;;;;;12.81;78.64;101004.38;5042747;28;20065;-60
2024/03/12 04:06:47;;;;;;;18.75;12.07;;;;;;;12.74;79.09;101015.06;5044368;28;20067;-61
2024/03/12 04:09:18;;;;;;;17.63;12.02;;;;;;;12.75;78.53;101024.97;5045622;28;20060;-60
2024/03/12 04:11:48;;;;;;;20.27;11.15;;;;;;;12.78;79.15;101027.13;5045666;28;20053;-59
2024/03/12 04:14:17;;;;;;;16.58;10.55;;;;;;;12.91;78.50;101029.75;5044406;28;20057;-59
2024/03/12 04:16:45;;;;;;;17.52;11.48;;;;;;;12.95;78.20;101029.94;5077093;28;20068;-60
2024/03/12 04:19:13;;;;;;;19.55;11.77;;;;;;;12.67;79.01;101037.66;5043771;28;20067;-61
2024/03/12 04:21:41;;;;;;;16.23;11.05;;;;;;;12.84;78.65;101034.13;5045444;28;20788;-60
2024/03/12 04:24:10;;;;;;;20.67;11.63;;;;;;;12.89;78.67;101031.22;5022467;28;20064;-61
2024/03/12 04:26:39;;;;;;;18.75;12.38;;;;;;;12.97;78.72;101047.81;5025940;28;20061;-61
2024/03/12 04:29:06;;;;;;;20.33;12.57;;;;;;;12.98;78.13;101043.94;5027684;28;20060;-59
2024/03/12 04:31:34;;;;;;;19.67;12.75;;;;;;;12.71;79.04;101049.69;5046580;28;20060;-61
2024/03/12 04:34:02;;;;;;;18.38;12.00;;;;;;;12.67;79.85;101048.72;5064834;28;20068;-59
2024/03/12 04:36:32;;;;;;;17.83;11.35;;;;;;;12.74;79.64;101042.72;5065168;28;20052;-61
2024/03/12 04:39:00;;;;;;;16.08;10.88;;;;;;;12.81;79.26;101048.59;5048521;28;20064;-61
2024/03/12 04:41:27;;;;;;;17.83;11.10;;;;;;;12.89;79.33;101043.09;5043585;28;20056;-59
2024/03/12 04:43:54;;;;;;;17.95;11.38;;;;;;;12.77;79.22;101040.13;5043151;28;20060;-60
2024/03/12 04:46:21;;;;;;;18.48;11.73;;;;;;;12.69;79.85;101040.94;5045779;28;20064;-59
2024/03/12 04:48:48;;;;;;;17.45;11.95;;;;;;;12.95;79.09;101054.81;5065885;28;20932;-61
2024/03/12 04:51:17;;;;;;;17.50;11.55;;;;;;;12.85;79.36;101049.59;5043901;28;20686;-59
2024/03/12 04:53:45;;;;;;;18.02;11.15;;;;;;;12.88;79.01;101052.53;5043944;28;20076;-60
2024/03/12 04:56:16;;;;;;;16.83;10.52;;;;;;;12.66;80.52;101058.13;5044941;28;20060;-59
2024/03/12 04:58:44;;;;;;;17.58;11.07;;;;;;;12.77;80.04;101058.66;5046164;28;20060;-60
2024/03/12 05:01:11;;;;;;;17.48;11.00;;;;;;;12.77;80.23;101061.41;5049651;28;20057;-60
2024/03/12 05:03:39;;;;;;;17.38;10.52;;;;;;;12.85;79.77;101055.13;5047791;28;20083;-60
2024/03/12 05:06:07;;;;;;;16.55;10.70;;;;;;;12.80;80.10;101058.00;5080752;28;20060;-60
2024/03/12 05:08:34;;;;;;;17.27;11.25;;;;;;;12.89;79.95;101054.16;5049456;28;20064;-60
2024/03/12 05:11:02;;;;;;;14.75;9.95;;;;;;;13.07;78.79;101066.09;5047189;28;20048;-60
2024/03/12 05:13:29;;;;;;;18.80;10.68;;;;;;;13.05;78.81;101060.09;5047967;28;20060;-60
2024/03/12 05:15:57;;;;;;;17.73;10.30;;;;;;;13.03;78.56;101067.88;5049607;28;20518;-62
2024/03/12 05:18:24;;;;;;;17.58;11.52;;;;;;;13.06;79.03;101061.69;5047677;28;20057;-61
2024/03/12 05:20:51;;;;;;;16.83;11.05;;;;;;;12.98;78.97;101066.06;5080356;28;20052;-61
2024/03/12 05:23:19;;;;;;;15.48;10.38;;;;;;;13.09;78.80;101064.63;5047219;28;20045;-63
2024/03/12 05:25:46;;;;;;;16.75;11.43;;;;;;;12.98;79.08;101066.06;5049044;28;20064;-59
2024/03/12 05:28:14;;;;;;;16.80;10.13;;;;;;;12.98;78.98;101073.53;5046594;28;20064;-64
2024/03/12 05:30:42;;;;;;;18.00;11.20;;;;;;;12.97;79.04;101069.94;5047551;28;20053;-62
2024/03/12 05:33:12;;;;;;;19.25;11.82;;;;;;;12.99;78.72;101073.22;5048940;28;20555;-58
2024/03/12 05:35:47;;;;;;;19.95;12.10;;;;;;;12.96;79.04;101075.78;5049053;28;20057;-59
2024/03/12 05:38:44;;;;;;;18.67;11.00;;;;;;;12.98;78.95;101077.13;5046765;28;20071;-63
2024/03/12 05:41:15;;;;;;;16.73;11.02;;;;;;;13.07;78.59;101074.41;5047605;28;20048;-61
2024/03/12 05:49:15;;;;;;;20.10;11.52;;;;;;;12.94;78.57;101086.34;5043516;28;20056;-62
2024/03/12 05:51:45;;;;;;;17.70;10.40;;;;;;;13.13;78.29;101084.16;5028696;28;20523;-61
2024/03/12 05:54:13;;;;;;;17.63;10.43;;;;;;;13.08;77.49;101087.09;5076749;28;20583;-61
2024/03/12 05:56:40;;;;;;;18.20;10.55;;;;;;;12.95;77.35;101085.25;5078061;28;20090;-61
2024/03/12 05:59:07;;;;;;;21.50;11.32;;;;;;;13.03;78.25;101078.94;5037423;28;20045;-57
2024/03/12 06:01:35;;;;;;;17.55;9.30;;;;;;;12.94;77.58;101084.41;5046293;28;20060;-60
2024/03/12 06:04:05;;;;;;;17.75;10.88;;;;;;;12.87;77.70;101091.53;5061563;28;20060;-59
2024/03/12 06:06:32;;;;;;;;;;;;;;;12.90;77.95;101085.38;5028213;28;20061;-59
2024/03/12 06:09:00;;;;;;;19.80;11.48;;;;;;;12.84;77.94;101086.66;5045382;28;19925;-59
2024/03/12 06:11:28;;;;;;;18.33;11.07;;;;;;;12.97;77.54;101089.28;5046767;28;20063;-60
2024/03/12 06:13:55;;;;;;;21.65;11.93;;;;;;;12.99;77.85;101091.78;5045639;28;20048;-61
2024/03/12 06:16:24;;;;;;;19.50;11.25;;;;;;;12.79;77.72;101095.91;5045897;28;20049;-61
2024/03/12 06:18:52;;;;;;;18.73;10.85;;;;;;;12.90;77.42;101099.22;5044281;28;20446;-62
2024/03/12 06:21:19;;;;;;;19.15;10.20;;;;;;;12.87;77.88;101099.81;5046142;28;20041;-62
2024/03/12 06:23:46;;;;;;;19.90;11.27;;;;;;;12.97;76.73;101102.34;5047864;28;20060;-63
2024/03/12 06:26:14;;;;;;;21.00;10.75;;;;;;;12.70;77.21;101103.34;5046347;28;20166;-59
2024/03/12 06:28:41;;;;;;;23.58;11.30;;;;;;;12.57;78.96;101107.00;5047252;28;20072;-61
2024/03/12 06:31:09;;;;;;;23.70;12.95;;;;;;;12.47;77.92;101110.03;5079887;28;20059;-62
2024/03/12 06:33:39;;;;;;;20.13;11.32;;;;;;;12.61;78.57;101113.53;5048051;28;20072;-62
2024/03/12 06:36:07;;;;;;;18.20;11.43;;;;;;;12.75;77.60;101122.56;5047289;28;20064;-62
2024/03/12 06:38:35;;;;;;;20.98;10.13;;;;;;;12.80;77.44;101118.81;5045889;28;20053;-60
2024/03/12 06:41:05;;;;;;;22.20;10.05;;;;;;;13.20;76.92;101118.53;5044437;28;20053;-60
2024/03/12 06:43:33;;;;;;;;;;;;;;;13.07;76.00;101108.41;5033731;28;20064;-60
2024/03/12 06:46:01;;;;;;;21.75;10.60;;;;;;;12.84;76.66;101117.06;5047154;28;19924;-62
2024/03/12 06:48:28;;;;;;;24.50;11.77;;;;;;;12.92;76.24;101111.56;5046624;28;20567;-60
2024/03/12 06:50:56;;;;;;;16.60;10.07;;;;;;;13.06;76.13;101114.25;5044996;28;20056;-63
2024/03/12 06:53:25;;;;;;;17.23;10.73;;;;;;;13.03;79.52;101118.47;5045565;28;20055;-61
2024/03/12 06:55:52;;;;;;;21.77;10.57;;;;;;;12.90;82.94;101124.09;5045288;28;20519;-61
2024/03/12 06:58:21;;;;;;;21.88;10.82;;;;;;;13.13;83.05;101123.72;5047386;28;20621;-62
2024/03/12 07:00:50;;;;;;;19.65;11.00;;;;;;;13.19;84.75;101127.97;5047802;28;20156;-60
2024/03/12 07:06:03;;;;;;;23.92;10.80;;;;;;;13.18;83.07;101131.06;5070614;28;20046;-61
2024/03/12 07:08:31;;;;;;;22.63;10.57;;;;;;;13.20;83.61;101140.66;5042181;28;20048;-62
2024/03/12 07:10:58;;;;;;;17.52;10.35;;;;;;;13.13;82.62;101145.84;5031422;28;20053;-64
2024/03/12 07:13:26;;;;;;;23.38;10.85;;;;;;;12.98;83.14;101132.41;5035853;28;20708;-60
2024/03/12 07:15:54;;;;;;;18.25;10.90;;;;;;;13.03;84.08;101131.47;5048249;28;20044;-61
2024/03/12 07:18:23;;;;;;;20.63;10.60;;;;;;;12.97;84.58;101141.03;5048816;28;20534;-60
2024/03/12 07:20:52;;;;;;;23.55;11.27;;;;;;;12.67;83.79;101145.44;5079597;28;20060;-62
2024/03/12 07:23:20;;;;;;;20.05;10.50;;;;;;;12.94;83.90;101155.47;5054387;28;20048;-62
2024/03/12 07:25:48;;;;;;;26.88;11.48;;;;;;;12.99;83.31;101158.13;5060740;28;20060;-59
2024/03/12 07:28:15;;;;;;;20.98;11.25;;;;;;;12.90;83.62;101155.31;5048338;28;20451;-62
2024/03/12 07:30:45;;;;;;;18.90;9.87;;;;;;;12.79;82.94;101151.19;5047463;28;20074;-61
2024/03/12 07:33:19;;;;;;;19.70;10.50;;;;;;;12.84;82.81;101156.59;5048065;28;20056;-62
2024/03/12 07:35:46;;;;;;;24.08;10.70;;;;;;;13.10;80.99;101159.50;5044889;28;20183;-60
2024/03/12 07:38:14;;;;;;;22.83;10.80;;;;;;;13.05;81.22;101159.63;5046066;28;20057;-62
2024/03/12 07:40:43;;;;;;;19.25;11.23;;;;;;;13.13;80.81;101165.19;5047754;28;20049;-62
2024/03/12 07:43:11;;;;;;;21.08;10.13;;;;;;;13.11;78.41;101166.66;5046530;28;20091;-61
2024/03/12 07:45:43;;;;;;;21.45;10.50;;;;;;;13.21;77.70;101163.63;5044277;28;20056;-59
2024/03/12 07:48:11;;;;;;;22.45;11.20;;;;;;;12.80;78.13;101166.63;5043830;28;20063;-62
2024/03/12 07:50:40;;;;;;;17.38;9.65;;;;;;;13.02;78.88;101172.13;5045647;28;20049;-60
2024/03/12 07:53:10;;;;;;;20.42;10.70;;;;;;;13.18;78.30;101167.81;5044843;28;20041;-60
2024/03/12 07:55:38;;;;;;;21.00;10.77;;;;;;;13.21;77.20;101181.03;5046410;28;20052;-63
2024/03/12 07:58:05;;;;;;;21.55;10.57;;;;;;;13.50;77.31;101183.22;5047493;28;20064;-62
2024/03/12 08:00:33;;;;;;;16.75;9.57;;;;;;;13.42;76.37;101176.53;5047525;28;20064;-63
2024/03/12 08:03:00;;;;;;;23.48;10.05;;;;;;;13.63;75.67;101176.75;5079220;28;20045;-64
2024/03/12 08:05:28;;;;;;;22.63;10.20;;;;;;;13.65;74.58;101184.75;5079749;28;20061;-62
2024/03/12 08:08:00;;;;;;;18.70;8.88;;;;;;;13.62;75.52;101180.66;5051525;28;20051;-62
2024/03/12 08:10:27;;;;;;;18.90;10.15;;;;;;;13.66;75.65;101186.34;5099794;28;20063;-62
2024/03/12 08:12:54;;;;;;;19.95;9.50;;;;;;;13.83;73.51;101194.69;5034683;28;20056;-58
2024/03/12 08:15:22;;;;;;;16.30;9.82;;;;;;;13.84;73.59;101190.81;5043827;28;20052;-59
2024/03/12 08:17:49;;;;;;;19.55;9.63;;;;;;;14.03;74.00;101196.84;5077132;28;20057;-60
2024/03/12 08:20:18;;;;;;;19.98;8.85;;;;;;;13.90;71.17;101198.63;5043116;28;20064;-61
2024/03/12 08:22:47;;;;;;;19.15;10.13;;;;;;;14.18;71.94;101199.94;5046274;28;20056;-61
2024/03/12 08:25:16;;;;;;;23.35;9.52;;;;;;;14.09;73.21;101192.75;5028397;28;20056;-61
2024/03/12 08:27:44;;;;;;;18.48;9.50;;;;;;;13.86;72.52;101192.09;5047084;28;20048;-61
2024/03/12 08:30:12;;;;;;;20.52;10.23;;;;;;;13.71;73.56;101194.50;5048000;28;20527;-61
2024/03/12 08:32:41;;;;;;;16.25;9.05;;;;;;;14.00;71.34;101191.97;5047755;28;20053;-60
2024/03/12 08:35:10;;;;;;;18.58;9.02;;;;;;;14.26;70.47;101190.84;5047371;28;20064;-60
2024/03/12 08:37:38;;;;;;;16.20;9.48;;;;;;;14.39;69.53;101197.38;5045986;28;20091;-61
2024/03/12 08:40:07;;;;;;;15.82;8.35;;;;;;;14.94;66.58;101194.66;5047490;28;20052;-61
2024/03/12 08:42:35;;;;;;;16.52;8.85;;;;;;;14.63;67.33;101197.66;5069766;28;20797;-60
2024/03/12 08:45:16;;;;;;;16.30;8.90;;;;;;;14.62;66.45;101205.19;5049511;28;20060;-60
2024/03/12 08:47:48;;;;;;;18.67;8.98;;;;;;;14.10;68.75;101206.31;5035744;28;20057;-61
2024/03/12 08:50:17;;;;;;;17.73;8.70;;;;;;;13.95;69.17;101211.47;5046147;28;20072;-60
2024/03/12 08:52:44;;;;;;;15.95;8.80;;;;;;;14.31;67.67;101223.94;5029127;28;20408;-61
2024/03/12 08:55:12;;;;;;;17.83;9.30;;;;;;;13.64;70.25;101225.44;5047025;28;20443;-60
2024/03/12 08:57:39;;;;;;;17.05;9.05;;;;;;;13.83;71.07;101217.66;5078806;28;20056;-61
2024/03/12 09:00:11;;;;;;;16.65;9.07;;;;;;;14.03;70.17;101219.84;5045951;28;20056;-61
2024/03/12 09:02:39;;;;;;;15.30;8.75;;;;;;;13.93;70.20;101219.31;5047074;28;20053;-60
2024/03/12 09:05:07;;;;;;;16.80;8.90;;;;;;;13.95;70.29;101219.78;5046486;28;20612;-62
2024/03/12 09:07:38;;;;;;;17.40;7.88;;;;;;;13.76;70.97;101225.63;5047421;28;20506;-60
2024/03/12 09:10:11;;;;;;;16.95;8.20;;;;;;;14.07;69.41;101223.56;5030491;28;20060;-61
2024/03/12 09:12:40;;;;;;;13.90;7.57;;;;;;;14.00;69.57;101223.22;5044742;28;20056;-60
2024/03/12 09:15:09;;;;;;;17.40;7.97;;;;;;;14.21;69.53;101229.78;5035205;28;20389;-60
2024/03/12 09:17:37;;;;;;;17.63;8.85;;;;;;;14.13;68.85;101236.13;5041607;28;20071;-62
2024/03/12 09:20:06;;;;;;;16.17;8.15;;;;;;;14.34;68.66;101239.09;5045391;28;20052;-60
2024/03/12 09:22:33;;;;;;;20.15;7.57;;;;;;;14.19;68.37;101231.25;5042173;28;20544;-62
2024/03/12 09:25:01;;;;;;;16.10;7.95;;;;;;;14.16;68.93;101245.72;5043083;28;20049;-61
2024/03/12 09:27:28;;;;;;;18.35;6.80;;;;;;;14.12;68.92;101247.53;5046150;28;20053;-61
2024/03/12 09:29:56;;;;;;;12.43;7.18;;;;;;;14.09;68.24;101239.84;5046814;28;20045;-61
2024/03/12 09:32:24;;;;;;;16.70;6.90;;;;;;;14.14;68.31;101248.03;5033590;28;20520;-62
2024/03/12 09:34:54;;;;;;;15.55;7.10;;;;;;;14.06;68.37;101251.59;5040943;28;20052;-63
2024/03/12 09:37:21;;;;;;;;;;;;;;;14.27;68.43;101259.00;5076748;28;20072;-62
2024/03/12 09:39:52;;;;;;;15.98;6.90;;;;;;;13.87;68.69;101259.38;5045161;28;19968;-61
2024/03/12 09:42:23;;;;;;;14.80;6.50;;;;;;;13.70;70.17;101264.88;5041047;28;20057;-62
2024/03/12 09:44:51;;;;;;;15.80;6.47;;;;;;;13.76;70.98;101266.34;5048061;28;20064;-61
2024/03/12 09:47:20;;;;;;;19.65;6.82;;;;;;;14.06;70.45;101262.66;5044160;28;20532;-62
2024/03/12 09:49:48;;;;;;;20.45;7.22;;;;;;;14.15;69.94;101260.75;5083883;28;20052;-60
2024/03/12 09:52:16;;;;;;;16.02;6.15;;;;;;;14.31;70.72;101261.94;5050983;28;20049;-60
2024/03/12 09:54:43;;;;;;;15.05;6.50;;;;;;;14.19;69.42;101262.53;5082551;28;20048;-60
2024/03/12 09:57:11;;;;;;;12.18;5.72;;;;;;;14.24;70.08;101258.78;5048980;28;20515;-59
2024/03/12 09:59:40;;;;;;;17.13;6.30;;;;;;;14.18;70.31;101249.00;5068584;28;20057;-58
2024/03/12 10:02:09;;;;;;;12.67;5.57;;;;;;;13.92;70.17;101248.13;5031529;28;20064;-60
2024/03/12 10:04:37;;;;;;;12.02;6.35;;;;;;;14.05;70.57;101249.97;5035636;28;20052;-61
2024/03/12 10:07:05;;;;;;;16.58;6.10;;;;;;;14.22;70.88;101242.50;5049532;28;20056;-60
2024/03/12 10:09:34;;;;;;;12.48;5.78;;;;;;;14.43;69.51;101237.97;5065306;28;20591;-62
2024/03/12 10:12:02;;;;;;;13.80;5.72;;;;;;;14.33;69.55;101240.25;5066326;28;20049;-61
2024/03/12 10:14:33;;;;;;;11.25;5.18;;;;;;;14.32;69.51;101236.66;5049078;28;20588;-60
2024/03/12 10:17:13;;;;;;;13.63;5.88;;;;;;;14.28;69.64;101238.44;5082491;28;20052;-62
2024/03/12 10:19:47;;;;;;;15.27;5.65;;;;;;;14.29;70.34;101230.97;5051125;28;20049;-61
2024/03/12 10:22:22;;;;;;;14.30;6.00;;;;;;;14.32;69.78;101228.34;5051792;28;20059;-60
2024/03/12 10:24:49;;;;;;;12.60;5.10;;;;;;;14.31;70.99;101232.25;5059883;28;20041;-60
2024/03/12 10:27:18;;;;;;;15.82;5.88;;;;;;;14.53;70.69;101225.72;5047543;28;20053;-61
2024/03/12 10:29:45;;;;;;;12.27;6.10;;;;;;;14.18;71.47;101237.91;5053518;28;20702;-61
2024/03/12 10:32:18;;;;;;;12.15;6.07;;;;;;;14.31;71.59;101232.25;5049248;28;20052;-61
2024/03/12 10:34:47;;;;;;;19.02;6.65;;;;;;;14.29;71.09;101234.56;5047142;28;20045;-60
2024/03/12 10:37:34;;;;;;;13.38;5.95;;;;;;;14.38;71.33;101231.78;5044703;28;20566;-61
2024/03/12 10:40:18;;;;;;;13.73;6.55;;;;;;;14.42;70.71;101216.94;5048100;28;20048;-61
2024/03/12 10:43:01;;;;;;;18.42;7.30;;;;;;;13.87;71.64;101217.84;5039326;28;20049;-60
2024/03/12 10:45:29;;;;;;;14.23;6.82;;;;;;;13.27;76.53;101223.19;5060867;28;20053;-62
2024/03/12 10:47:58;;;;;;;18.23;7.30;;;;;;;13.30;76.36;101211.50;5046966;28;20049;-61
2024/03/12 10:50:26;;;;;;;13.45;6.43;;;;;;;13.76;75.36;101219.28;5048326;28;20060;-60
2024/03/12 10:52:57;;;;;;;14.10;6.53;;;;;;;14.02;73.94;101218.19;5049673;28;20058;-60
2024/03/12 10:55:24;;;;;;;13.75;6.72;;;;;;;14.16;74.00;101207.75;5048418;28;20048;-61
2024/03/12 10:57:54;;;;;;;12.00;5.88;;;;;;;14.25;72.51;101205.81;5048107;28;20057;-62
2024/03/12 11:00:25;;;;;;;15.90;6.28;;;;;;;14.27;72.61;101208.28;5048945;28;20417;-60
2024/03/12 11:02:56;;;;;;;15.77;6.88;;;;;;;14.24;73.26;101206.16;5033356;28;20049;-58
2024/03/12 11:05:27;;;;;;;12.85;6.18;;;;;;;14.21;73.85;101209.59;5038494;28;20049;-59
2024/03/12 11:07:57;;;;;;;13.10;6.30;;;;;;;14.40;73.41;101196.25;5046409;28;20551;-60
2024/03/12 11:10:27;;;;;;;14.07;7.32;;;;;;;14.52;73.18;101188.06;5044673;28;20060;-59
2024/03/12 11:12:55;;;;;;;18.38;8.18;;;;;;;14.22;74.30;101200.13;5048934;28;20053;-60
2024/03/12 11:15:23;;;;;;;12.52;6.63;;;;;;;14.14;74.71;101190.66;5047781;28;20045;-58
2024/03/12 11:17:51;;;;;;;16.98;6.88;;;;;;;14.27;74.99;101186.13;5049508;28;20045;-61
2024/03/12 11:20:23;;;;;;;18.02;8.35;;;;;;;14.58;74.02;101184.78;5079812;28;20051;-61
2024/03/12 11:23:00;;;;;;;18.83;7.60;;;;;;;14.47;74.50;101179.94;5048534;28;20033;-61
2024/03/12 11:25:35;;;;;;;17.25;6.97;;;;;;;14.31;75.79;101182.34;5047681;28;20059;-61
2024/03/12 11:28:22;;;;;;;11.63;6.65;;;;;;;14.24;76.21;101181.22;5047082;28;20068;-60